sensor_id;sensor_type;location;lat;lon;timestamp;pressure;altitude;pressure_sealevel;temperature;humidity
13068;BME280;6600;51.362;6.686;2022-10-31T00:01:59;101637.53;;;14.43;100.00
13068;BME280;6600;51.362;6.686;2022-10-31T00:04:24;101641.09;;;14.37;100.00
13068;BME280;6600;51.362;6.686;2022-10-31T00:06:49;101631.56;;;14.35;100.00
13068;BME280;6600;51.362;6.686;2022-10-31T00:09:15;101643.59;;;14.32;100.00
13068;BME280;6600;51.362;6.686;2022-10-31T00:11:40;101641.91;;;14.31;100.00
13068;BME280;6600;51.362;6.686;2022-10-31T00:14:05;101647.16;;;14.26;100.00
13068;BME280;6600;51.362;6.686;2022-10-31T00:16:31;101646.53;;;14.24;100.00
13068;BME280;6600;51.362;6.686;2022-10-31T00:19:02;101641.56;;;14.21;100.00
13068;BME280;6600;51.362;6.686;2022-10-31T00:21:29;101632.25;;;14.17;100.00
13068;BME280;6600;51.362;6.686;2022-10-31T00:23:56;101638.72;;;14.16;100.00
13068;BME280;6600;51.362;6.686;2022-10-31T00:26:22;101641.84;;;14.13;100.00
13068;BME280;6600;51.362;6.686;2022-10-31T00:28:47;101648.28;;;14.12;100.00
13068;BME280;6600;51.362;6.686;2022-10-31T00:31:13;101639.59;;;14.10;100.00
13068;BME280;6600;51.362;6.686;2022-10-31T00:33:39;101656.78;;;14.09;100.00
13068;BME280;6600;51.362;6.686;2022-10-31T00:36:07;101649.75;;;14.08;100.00
13068;BME280;6600;51.362;6.686;2022-10-31T00:38:32;101652.44;;;14.08;100.00
13068;BME280;6600;51.362;6.686;2022-10-31T00:40:58;101631.69;;;14.08;100.00
13068;BME280;6600;51.362;6.686;2022-10-31T00:43:24;101642.69;;;14.07;100.00
13068;BME280;6600;51.362;6.686;2022-10-31T00:45:50;101651.59;;;14.07;100.00
13068;BME280;6600;51.362;6.686;2022-10-31T00:48:15;101648.91;;;14.07;100.00
13068;BME280;6600;51.362;6.686;2022-10-31T00:50:41;101651.00;;;14.05;100.00
13068;BME280;6600;51.362;6.686;2022-10-31T00:53:06;101636.69;;;14.05;100.00
13068;BME280;6600;51.362;6.686;2022-10-31T00:55:32;101650.78;;;14.07;100.00
13068;BME280;6600;51.362;6.686;2022-10-31T00:57:57;101649.53;;;14.09;100.00
13068;BME280;6600;51.362;6.686;2022-10-31T01:00:23;101652.22;;;14.09;100.00
13068;BME280;6600;51.362;6.686;2022-10-31T01:02:48;101647.88;;;14.08;100.00
13068;BME280;6600;51.362;6.686;2022-10-31T01:05:14;101646.00;;;14.09;100.00
13068;BME280;6600;51.362;6.686;2022-10-31T01:07:40;101642.69;;;14.07;100.00
13068;BME280;6600;51.362;6.686;2022-10-31T01:10:06;101645.81;;;14.04;100.00
13068;BME280;6600;51.362;6.686;2022-10-31T01:12:43;101651.22;;;14.04;100.00
13068;BME280;6600;51.362;6.686;2022-10-31T01:15:10;101651.63;;;14.01;100.00
13068;BME280;6600;51.362;6.686;2022-10-31T01:17:36;101658.28;;;13.98;100.00
13068;BME280;6600;51.362;6.686;2022-10-31T01:20:03;101663.47;;;13.93;100.00
13068;BME280;6600;51.362;6.686;2022-10-31T01:22:28;101663.31;;;13.88;100.00
13068;BME280;6600;51.362;6.686;2022-10-31T01:24:54;101654.44;;;13.81;100.00
13068;BME280;6600;51.362;6.686;2022-10-31T01:27:19;101645.13;;;13.77;100.00
13068;BME280;6600;51.362;6.686;2022-10-31T01:29:45;101649.69;;;13.77;100.00
13068;BME280;6600;51.362;6.686;2022-10-31T01:32:10;101645.59;;;13.68;100.00
13068;BME280;6600;51.362;6.686;2022-10-31T01:34:35;101638.75;;;13.72;100.00
13068;BME280;6600;51.362;6.686;2022-10-31T01:37:00;101634.41;;;13.64;100.00
13068;BME280;6600;51.362;6.686;2022-10-31T01:39:26;101641.84;;;13.62;100.00
13068;BME280;6600;51.362;6.686;2022-10-31T01:41:52;101644.78;;;13.60;100.00
13068;BME280;6600;51.362;6.686;2022-10-31T01:46:52;101643.13;;;13.59;100.00
13068;BME280;6600;51.362;6.686;2022-10-31T01:54:26;101627.84;;;13.47;100.00
13068;BME280;6600;51.362;6.686;2022-10-31T01:56:56;101628.28;;;13.44;100.00
13068;BME280;6600;51.362;6.686;2022-10-31T01:59:27;101630.13;;;13.43;100.00
13068;BME280;6600;51.362;6.686;2022-10-31T02:01:54;101629.72;;;13.40;100.00
13068;BME280;6600;51.362;6.686;2022-10-31T02:04:22;101628.28;;;13.37;100.00
13068;BME280;6600;51.362;6.686;2022-10-31T02:06:56;101634.72;;;13.36;100.00
13068;BME280;6600;51.362;6.686;2022-10-31T02:09:24;101640.53;;;13.33;100.00
13068;BME280;6600;51.362;6.686;2022-10-31T02:11:56;101639.28;;;13.29;100.00
13068;BME280;6600;51.362;6.686;2022-10-31T02:14:24;101638.03;;;13.25;100.00
13068;BME280;6600;51.362;6.686;2022-10-31T02:16:49;101639.06;;;13.24;100.00
13068;BME280;6600;51.362;6.686;2022-10-31T02:19:19;101638.69;;;13.27;100.00
13068;BME280;6600;51.362;6.686;2022-10-31T02:21:59;101628.50;;;13.29;100.00
13068;BME280;6600;51.362;6.686;2022-10-31T02:24:46;101627.06;;;13.33;100.00
13068;BME280;6600;51.362;6.686;2022-10-31T02:27:27;101621.69;;;13.33;100.00
13068;BME280;6600;51.362;6.686;2022-10-31T02:30:03;101632.22;;;13.35;100.00
13068;BME280;6600;51.362;6.686;2022-10-31T02:35:16;101637.63;;;13.28;100.00
13068;BME280;6600;51.362;6.686;2022-10-31T02:38:06;101628.31;;;13.24;100.00
13068;BME280;6600;51.362;6.686;2022-10-31T02:40:51;101627.09;;;13.20;100.00
13068;BME280;6600;51.362;6.686;2022-10-31T02:46:30;101626.28;;;13.13;100.00
13068;BME280;6600;51.362;6.686;2022-10-31T02:48:47;101621.31;;;13.10;100.00
13068;BME280;6600;51.362;6.686;2022-10-31T02:51:16;101630.44;;;13.09;100.00
13068;BME280;6600;51.362;6.686;2022-10-31T02:53:42;101627.28;;;13.05;100.00
13068;BME280;6600;51.362;6.686;2022-10-31T02:56:16;101629.56;;;13.02;100.00
13068;BME280;6600;51.362;6.686;2022-10-31T02:59:08;101627.91;;;13.01;100.00
13068;BME280;6600;51.362;6.686;2022-10-31T03:01:54;101623.97;;;12.97;100.00
13068;BME280;6600;51.362;6.686;2022-10-31T03:04:59;101618.41;;;12.92;100.00
13068;BME280;6600;51.362;6.686;2022-10-31T03:08:24;101630.44;;;12.89;100.00
13068;BME280;6600;51.362;6.686;2022-10-31T03:16:26;101620.69;;;12.82;100.00
13068;BME280;6600;51.362;6.686;2022-10-31T03:19:04;101618.81;;;12.76;100.00
13068;BME280;6600;51.362;6.686;2022-10-31T03:24:05;101629.56;;;12.76;100.00
13068;BME280;6600;51.362;6.686;2022-10-31T03:26:32;101626.28;;;12.74;100.00
13068;BME280;6600;51.362;6.686;2022-10-31T03:29:03;101631.66;;;12.74;100.00
13068;BME280;6600;51.362;6.686;2022-10-31T03:31:36;101626.28;;;12.74;100.00
13068;BME280;6600;51.362;6.686;2022-10-31T03:34:05;101626.91;;;12.69;100.00
13068;BME280;6600;51.362;6.686;2022-10-31T03:36:34;101632.06;;;12.71;100.00
13068;BME280;6600;51.362;6.686;2022-10-31T03:39:04;101633.53;;;12.66;100.00
13068;BME280;6600;51.362;6.686;2022-10-31T03:41:35;101640.34;;;12.62;100.00
13068;BME280;6600;51.362;6.686;2022-10-31T03:44:08;101634.34;;;12.60;100.00
13068;BME280;6600;51.362;6.686;2022-10-31T03:46:36;101645.31;;;12.59;100.00
13068;BME280;6600;51.362;6.686;2022-10-31T03:49:02;101642.41;;;12.60;100.00
13068;BME280;6600;51.362;6.686;2022-10-31T03:51:44;101635.38;;;12.59;100.00
13068;BME280;6600;51.362;6.686;2022-10-31T03:54:17;101630.22;;;12.58;100.00
13068;BME280;6600;51.362;6.686;2022-10-31T03:56:57;101632.91;;;12.58;100.00
13068;BME280;6600;51.362;6.686;2022-10-31T03:59:35;101628.16;;;12.60;100.00
13068;BME280;6600;51.362;6.686;2022-10-31T04:02:13;101631.66;;;12.60;100.00
13068;BME280;6600;51.362;6.686;2022-10-31T04:04:39;101632.28;;;12.62;100.00
13068;BME280;6600;51.362;6.686;2022-10-31T04:07:06;101638.72;;;12.61;100.00
13068;BME280;6600;51.362;6.686;2022-10-31T04:09:35;101631.66;;;12.60;100.00
13068;BME280;6600;51.362;6.686;2022-10-31T04:12:03;101627.94;;;12.61;100.00
13068;BME280;6600;51.362;6.686;2022-10-31T04:14:32;101624.22;;;12.62;100.00
13068;BME280;6600;51.362;6.686;2022-10-31T04:17:00;101625.88;;;12.63;100.00
13068;BME280;6600;51.362;6.686;2022-10-31T04:19:27;101632.91;;;12.64;100.00
13068;BME280;6600;51.362;6.686;2022-10-31T04:21:52;101618.41;;;12.65;100.00
13068;BME280;6600;51.362;6.686;2022-10-31T04:24:17;101621.09;;;12.65;100.00
13068;BME280;6600;51.362;6.686;2022-10-31T04:26:43;101622.16;;;12.64;100.00
13068;BME280;6600;51.362;6.686;2022-10-31T04:29:08;101623.00;;;12.65;100.00
13068;BME280;6600;51.362;6.686;2022-10-31T04:31:33;101626.47;;;12.65;100.00
13068;BME280;6600;51.362;6.686;2022-10-31T04:33:59;101616.38;;;12.68;100.00
13068;BME280;6600;51.362;6.686;2022-10-31T04:36:24;101626.09;;;12.69;100.00
13068;BME280;6600;51.362;6.686;2022-10-31T04:38:49;101629.19;;;12.72;100.00
13068;BME280;6600;51.362;6.686;2022-10-31T04:41:14;101624.00;;;12.71;100.00
13068;BME280;6600;51.362;6.686;2022-10-31T04:43:40;101627.94;;;12.75;100.00
13068;BME280;6600;51.362;6.686;2022-10-31T04:46:05;101628.78;;;12.75;100.00
13068;BME280;6600;51.362;6.686;2022-10-31T04:48:30;101636.00;;;12.75;100.00
13068;BME280;6600;51.362;6.686;2022-10-31T04:51:00;101626.09;;;12.69;100.00
13068;BME280;6600;51.362;6.686;2022-10-31T04:53:25;101624.22;;;12.62;100.00
13068;BME280;6600;51.362;6.686;2022-10-31T04:55:51;101620.28;;;12.58;100.00
13068;BME280;6600;51.362;6.686;2022-10-31T04:58:16;101618.41;;;12.52;100.00
13068;BME280;6600;51.362;6.686;2022-10-31T05:00:41;101619.06;;;12.48;100.00
13068;BME280;6600;51.362;6.686;2022-10-31T05:03:06;101616.34;;;12.41;100.00
13068;BME280;6600;51.362;6.686;2022-10-31T05:05:32;101604.16;;;12.39;100.00
13068;BME280;6600;51.362;6.686;2022-10-31T05:07:57;101601.69;;;12.37;100.00
13068;BME280;6600;51.362;6.686;2022-10-31T05:10:25;101604.75;;;12.34;100.00
13068;BME280;6600;51.362;6.686;2022-10-31T05:12:53;101610.53;;;12.31;100.00
13068;BME280;6600;51.362;6.686;2022-10-31T05:15:20;101601.44;;;12.32;100.00
13068;BME280;6600;51.362;6.686;2022-10-31T05:17:46;101594.41;;;12.31;100.00
13068;BME280;6600;51.362;6.686;2022-10-31T05:20:12;101589.44;;;12.28;100.00
13068;BME280;6600;51.362;6.686;2022-10-31T05:22:49;101587.00;;;12.27;100.00
13068;BME280;6600;51.362;6.686;2022-10-31T05:25:16;101585.31;;;12.26;100.00
13068;BME280;6600;51.362;6.686;2022-10-31T05:27:43;101584.50;;;12.25;100.00
13068;BME280;6600;51.362;6.686;2022-10-31T05:30:10;101591.13;;;12.23;100.00
13068;BME280;6600;51.362;6.686;2022-10-31T05:32:40;101600.19;;;12.22;100.00
13068;BME280;6600;51.362;6.686;2022-10-31T05:35:07;101592.34;;;12.20;100.00
13068;BME280;6600;51.362;6.686;2022-10-31T05:37:34;101603.72;;;12.22;100.00
13068;BME280;6600;51.362;6.686;2022-10-31T05:40:01;101595.84;;;12.21;100.00
13068;BME280;6600;51.362;6.686;2022-10-31T05:42:26;101596.50;;;12.23;100.00
13068;BME280;6600;51.362;6.686;2022-10-31T05:44:51;101594.81;;;12.22;100.00
13068;BME280;6600;51.362;6.686;2022-10-31T05:47:17;101600.63;;;12.25;100.00
13068;BME280;6600;51.362;6.686;2022-10-31T05:49:42;101588.19;;;12.24;100.00
13068;BME280;6600;51.362;6.686;2022-10-31T05:52:07;101589.88;;;12.25;100.00
13068;BME280;6600;51.362;6.686;2022-10-31T05:54:33;101593.56;;;12.24;100.00
13068;BME280;6600;51.362;6.686;2022-10-31T05:56:58;101587.59;;;12.22;100.00
13068;BME280;6600;51.362;6.686;2022-10-31T05:59:23;101584.91;;;12.22;100.00
13068;BME280;6600;51.362;6.686;2022-10-31T06:01:48;101592.97;;;12.22;100.00
13068;BME280;6600;51.362;6.686;2022-10-31T06:04:14;101590.47;;;12.21;100.00
13068;BME280;6600;51.362;6.686;2022-10-31T06:06:39;101581.63;;;12.20;100.00
13068;BME280;6600;51.362;6.686;2022-10-31T06:09:04;101571.88;;;12.19;100.00
13068;BME280;6600;51.362;6.686;2022-10-31T06:11:30;101570.44;;;12.17;100.00
13068;BME280;6600;51.362;6.686;2022-10-31T06:13:55;101569.81;;;12.14;100.00
13068;BME280;6600;51.362;6.686;2022-10-31T06:16:20;101577.03;;;12.14;100.00
13068;BME280;6600;51.362;6.686;2022-10-31T06:18:46;101580.38;;;12.16;100.00
13068;BME280;6600;51.362;6.686;2022-10-31T06:21:12;101584.69;;;12.17;100.00
13068;BME280;6600;51.362;6.686;2022-10-31T06:23:37;101587.38;;;12.17;100.00
13068;BME280;6600;51.362;6.686;2022-10-31T06:26:02;101581.56;;;12.13;100.00
13068;BME280;6600;51.362;6.686;2022-10-31T06:28:28;101583.47;;;12.13;100.00
13068;BME280;6600;51.362;6.686;2022-10-31T06:30:53;101584.06;;;12.15;100.00
13068;BME280;6600;51.362;6.686;2022-10-31T06:33:18;101577.03;;;12.14;100.00
13068;BME280;6600;51.362;6.686;2022-10-31T06:35:47;101587.38;;;12.17;100.00
13068;BME280;6600;51.362;6.686;2022-10-31T06:38:13;101592.75;;;12.17;100.00
13068;BME280;6600;51.362;6.686;2022-10-31T06:40:38;101590.88;;;12.18;100.00
13068;BME280;6600;51.362;6.686;2022-10-31T06:43:03;101579.94;;;12.19;100.00
13068;BME280;6600;51.362;6.686;2022-10-31T06:45:29;101584.69;;;12.17;100.00
13068;BME280;6600;51.362;6.686;2022-10-31T06:47:55;101589.03;;;12.18;100.00
13068;BME280;6600;51.362;6.686;2022-10-31T06:50:21;101596.91;;;12.20;100.00
13068;BME280;6600;51.362;6.686;2022-10-31T06:52:53;101599.38;;;12.21;100.00
13068;BME280;6600;51.362;6.686;2022-10-31T06:55:19;101597.31;;;12.23;100.00
13068;BME280;6600;51.362;6.686;2022-10-31T06:57:52;101595.25;;;12.25;100.00
13068;BME280;6600;51.362;6.686;2022-10-31T07:00:18;101603.94;;;12.27;100.00
13068;BME280;6600;51.362;6.686;2022-10-31T07:02:52;101598.56;;;12.27;100.00
13068;BME280;6600;51.362;6.686;2022-10-31T07:05:18;101595.88;;;12.27;100.00
13068;BME280;6600;51.362;6.686;2022-10-31T07:07:43;101602.06;;;12.28;100.00
13068;BME280;6600;51.362;6.686;2022-10-31T07:10:08;101605.56;;;12.28;100.00
13068;BME280;6600;51.362;6.686;2022-10-31T07:12:33;101598.56;;;12.27;100.00
13068;BME280;6600;51.362;6.686;2022-10-31T07:14:59;101590.50;;;12.27;100.00
13068;BME280;6600;51.362;6.686;2022-10-31T07:17:24;101596.06;;;12.26;100.00
13068;BME280;6600;51.362;6.686;2022-10-31T07:19:49;101594.41;;;12.25;100.00
13068;BME280;6600;51.362;6.686;2022-10-31T07:22:15;101593.56;;;12.24;100.00
13068;BME280;6600;51.362;6.686;2022-10-31T07:24:40;101606.00;;;12.25;100.00
13068;BME280;6600;51.362;6.686;2022-10-31T07:27:05;101612.19;;;12.26;100.00
13068;BME280;6600;51.362;6.686;2022-10-31T07:29:30;101609.31;;;12.27;100.00
13068;BME280;6600;51.362;6.686;2022-10-31T07:31:56;101604.56;;;12.29;100.00
13068;BME280;6600;51.362;6.686;2022-10-31T07:34:21;101599.78;;;12.31;100.00
13068;BME280;6600;51.362;6.686;2022-10-31T07:36:46;101596.91;;;12.33;100.00
13068;BME280;6600;51.362;6.686;2022-10-31T07:39:12;101598.34;;;12.35;100.00
13068;BME280;6600;51.362;6.686;2022-10-31T07:41:37;101600.22;;;12.41;100.00
13068;BME280;6600;51.362;6.686;2022-10-31T07:44:02;101604.78;;;12.47;100.00
13068;BME280;6600;51.362;6.686;2022-10-31T07:46:28;101611.00;;;12.54;100.00
13068;BME280;6600;51.362;6.686;2022-10-31T07:48:53;101611.41;;;12.58;100.00
13068;BME280;6600;51.362;6.686;2022-10-31T07:51:18;101615.13;;;12.63;100.00
13068;BME280;6600;51.362;6.686;2022-10-31T07:53:44;101606.44;;;12.68;100.00
13068;BME280;6600;51.362;6.686;2022-10-31T07:56:10;101610.56;;;12.71;100.00
13068;BME280;6600;51.362;6.686;2022-10-31T07:58:35;101612.84;;;12.74;100.00
13068;BME280;6600;51.362;6.686;2022-10-31T08:01:00;101616.78;;;12.78;100.00
13068;BME280;6600;51.362;6.686;2022-10-31T08:03:25;101615.31;;;12.82;100.00
13068;BME280;6600;51.362;6.686;2022-10-31T08:05:51;101615.50;;;12.87;100.00
13068;BME280;6600;51.362;6.686;2022-10-31T08:08:16;101615.09;;;12.90;100.00
13068;BME280;6600;51.362;6.686;2022-10-31T08:10:42;101611.78;;;12.94;100.00
13068;BME280;6600;51.362;6.686;2022-10-31T08:13:12;101611.78;;;13.01;100.00
13068;BME280;6600;51.362;6.686;2022-10-31T08:15:38;101598.13;;;13.09;100.00
13068;BME280;6600;51.362;6.686;2022-10-31T08:18:05;101604.75;;;13.20;100.00
13068;BME280;6600;51.362;6.686;2022-10-31T08:20:31;101610.69;;;13.28;100.00
13068;BME280;6600;51.362;6.686;2022-10-31T08:22:59;101612.16;;;13.37;100.00
13068;BME280;6600;51.362;6.686;2022-10-31T08:25:25;101601.75;;;13.47;100.00
13068;BME280;6600;51.362;6.686;2022-10-31T08:27:52;101609.56;;;13.55;100.00
13068;BME280;6600;51.362;6.686;2022-10-31T08:30:19;101612.47;;;13.60;100.00
13068;BME280;6600;51.362;6.686;2022-10-31T08:32:45;101605.38;;;13.66;100.00
13068;BME280;6600;51.362;6.686;2022-10-31T08:35:10;101597.91;;;13.75;100.00
13068;BME280;6600;51.362;6.686;2022-10-31T08:37:36;101599.28;;;13.84;100.00
13068;BME280;6600;51.362;6.686;2022-10-31T08:40:01;101599.06;;;13.92;100.00
13068;BME280;6600;51.362;6.686;2022-10-31T08:42:26;101594.47;;;13.99;100.00
13068;BME280;6600;51.362;6.686;2022-10-31T08:44:52;101602.25;;;14.07;100.00
13068;BME280;6600;51.362;6.686;2022-10-31T08:47:17;101604.28;;;14.18;100.00
13068;BME280;6600;51.362;6.686;2022-10-31T08:49:42;101593.06;;;14.21;100.00
13068;BME280;6600;51.362;6.686;2022-10-31T08:52:07;101594.28;;;14.25;100.00
13068;BME280;6600;51.362;6.686;2022-10-31T08:54:33;101589.06;;;14.30;100.00
13068;BME280;6600;51.362;6.686;2022-10-31T08:56:58;101595.06;;;14.32;100.00
13068;BME280;6600;51.362;6.686;2022-10-31T08:59:23;101592.34;;;14.39;100.00
13068;BME280;6600;51.362;6.686;2022-10-31T09:01:49;101595.88;;;14.39;100.00
13068;BME280;6600;51.362;6.686;2022-10-31T09:04:14;101592.06;;;14.47;100.00
13068;BME280;6600;51.362;6.686;2022-10-31T09:06:40;101585.84;;;14.46;100.00
13068;BME280;6600;51.362;6.686;2022-10-31T09:09:05;101582.13;;;14.47;100.00
13068;BME280;6600;51.362;6.686;2022-10-31T09:11:30;101578.34;;;14.48;100.00
13068;BME280;6600;51.362;6.686;2022-10-31T09:13:56;101570.25;;;14.48;100.00
13068;BME280;6600;51.362;6.686;2022-10-31T09:16:21;101569.66;;;14.46;100.00
13068;BME280;6600;51.362;6.686;2022-10-31T09:18:47;101565.94;;;14.47;100.00
13068;BME280;6600;51.362;6.686;2022-10-31T09:21:12;101563.84;;;14.49;100.00
13068;BME280;6600;51.362;6.686;2022-10-31T09:23:37;101559.28;;;14.50;100.00
13068;BME280;6600;51.362;6.686;2022-10-31T09:26:03;101557.53;;;14.55;100.00
13068;BME280;6600;51.362;6.686;2022-10-31T09:28:29;101557.09;;;14.58;100.00
13068;BME280;6600;51.362;6.686;2022-10-31T09:30:54;101547.53;;;14.62;100.00
13068;BME280;6600;51.362;6.686;2022-10-31T09:33:20;101548.28;;;14.70;100.00
13068;BME280;6600;51.362;6.686;2022-10-31T09:35:46;101539.91;;;14.78;100.00
13068;BME280;6600;51.362;6.686;2022-10-31T09:38:13;101526.56;;;14.83;100.00
13068;BME280;6600;51.362;6.686;2022-10-31T09:40:44;101528.97;;;14.91;100.00
13068;BME280;6600;51.362;6.686;2022-10-31T09:52:18;101525.97;;;15.35;100.00
13068;BME280;6600;51.362;6.686;2022-10-31T09:54:52;101515.75;;;15.55;100.00
13068;BME280;6600;51.362;6.686;2022-10-31T09:57:24;101512.44;;;15.72;100.00
13068;BME280;6600;51.362;6.686;2022-10-31T09:59:51;101500.38;;;15.86;100.00
13068;BME280;6600;51.362;6.686;2022-10-31T10:02:21;101507.47;;;16.10;100.00
13068;BME280;6600;51.362;6.686;2022-10-31T10:04:56;101499.50;;;16.27;100.00
13068;BME280;6600;51.362;6.686;2022-10-31T10:10:37;101507.97;;;16.53;100.00
13068;BME280;6600;51.362;6.686;2022-10-31T10:15:54;101520.91;;;16.51;100.00
13068;BME280;6600;51.362;6.686;2022-10-31T10:18:36;101518.09;;;16.46;100.00
13068;BME280;6600;51.362;6.686;2022-10-31T10:24:03;101504.09;;;16.49;100.00
13068;BME280;6600;51.362;6.686;2022-10-31T10:26:40;101496.72;;;16.56;100.00
13068;BME280;6600;51.362;6.686;2022-10-31T10:32:17;101493.66;;;16.64;100.00
13068;BME280;6600;51.362;6.686;2022-10-31T10:35:33;101491.66;;;16.72;100.00
13068;BME280;6600;51.362;6.686;2022-10-31T10:37:38;101480.91;;;16.77;100.00
13068;BME280;6600;51.362;6.686;2022-10-31T10:40:15;101475.50;;;16.77;100.00
13068;BME280;6600;51.362;6.686;2022-10-31T10:42:45;101471.84;;;16.83;100.00
13068;BME280;6600;51.362;6.686;2022-10-31T10:45:34;101465.59;;;16.94;100.00
13068;BME280;6600;51.362;6.686;2022-10-31T10:49:05;101460.09;;;17.17;100.00
13068;BME280;6600;51.362;6.686;2022-10-31T10:52:01;101456.88;;;17.32;100.00
13068;BME280;6600;51.362;6.686;2022-10-31T11:00:01;101426.50;;;17.58;100.00
13068;BME280;6600;51.362;6.686;2022-10-31T11:02:31;101422.50;;;17.60;100.00
13068;BME280;6600;51.362;6.686;2022-10-31T11:04:58;101406.22;;;17.60;100.00
13068;BME280;6600;51.362;6.686;2022-10-31T11:07:24;101398.50;;;17.69;100.00
13068;BME280;6600;51.362;6.686;2022-10-31T11:09:49;101400.47;;;17.74;100.00
13068;BME280;6600;51.362;6.686;2022-10-31T11:12:26;101403.75;;;17.76;100.00
13068;BME280;6600;51.362;6.686;2022-10-31T11:14:56;101409.38;;;17.86;100.00
13068;BME280;6600;51.362;6.686;2022-10-31T11:17:39;101410.00;;;17.93;100.00
13068;BME280;6600;51.362;6.686;2022-10-31T11:20:06;101408.53;;;18.02;100.00
13068;BME280;6600;51.362;6.686;2022-10-31T11:22:48;101421.16;;;17.96;100.00
13068;BME280;6600;51.362;6.686;2022-10-31T11:25:22;101411.16;;;17.97;100.00
13068;BME280;6600;51.362;6.686;2022-10-31T11:28:09;101410.66;;;18.00;100.00
13068;BME280;6600;51.362;6.686;2022-10-31T11:31:12;101407.22;;;18.04;100.00
13068;BME280;6600;51.362;6.686;2022-10-31T11:33:48;101402.38;;;18.06;100.00
13068;BME280;6600;51.362;6.686;2022-10-31T11:36:20;101390.25;;;18.14;100.00
13068;BME280;6600;51.362;6.686;2022-10-31T11:38:47;101384.28;;;18.12;100.00
13068;BME280;6600;51.362;6.686;2022-10-31T11:41:33;101379.91;;;18.11;100.00
13068;BME280;6600;51.362;6.686;2022-10-31T11:44:23;101385.34;;;18.11;100.00
13068;BME280;6600;51.362;6.686;2022-10-31T11:46:54;101378.28;;;18.10;100.00
13068;BME280;6600;51.362;6.686;2022-10-31T11:49:28;101389.63;;;18.07;100.00
13068;BME280;6600;51.362;6.686;2022-10-31T11:51:56;101378.75;;;18.07;100.00
13068;BME280;6600;51.362;6.686;2022-10-31T11:54:26;101378.28;;;18.10;100.00
13068;BME280;6600;51.362;6.686;2022-10-31T11:56:52;101370.72;;;18.12;100.00
13068;BME280;6600;51.362;6.686;2022-10-31T11:59:29;101359.69;;;18.18;100.00
13068;BME280;6600;51.362;6.686;2022-10-31T12:01:57;101347.44;;;18.16;100.00
13068;BME280;6600;51.362;6.686;2022-10-31T12:04:29;101343.72;;;18.22;100.00
13068;BME280;6600;51.362;6.686;2022-10-31T12:06:57;101339.50;;;18.31;100.00
13068;BME280;6600;51.362;6.686;2022-10-31T12:09:28;101341.88;;;18.44;100.00
13068;BME280;6600;51.362;6.686;2022-10-31T12:12:11;101334.94;;;18.53;100.00
13068;BME280;6600;51.362;6.686;2022-10-31T12:14:54;101334.75;;;18.60;100.00
13068;BME280;6600;51.362;6.686;2022-10-31T12:17:27;101326.38;;;18.61;100.00
13068;BME280;6600;51.362;6.686;2022-10-31T12:22:42;101328.63;;;18.70;100.00
13068;BME280;6600;51.362;6.686;2022-10-31T12:33:29;101289.81;;;18.96;100.00
13068;BME280;6600;51.362;6.686;2022-10-31T12:36:21;101281.19;;;19.04;100.00
13068;BME280;6600;51.362;6.686;2022-10-31T12:41:22;101265.41;;;19.01;100.00
13068;BME280;6600;51.362;6.686;2022-10-31T12:46:55;101264.97;;;19.14;100.00
13068;BME280;6600;51.362;6.686;2022-10-31T12:50:06;101251.44;;;19.19;100.00
13068;BME280;6600;51.362;6.686;2022-10-31T12:55:47;101242.25;;;19.25;100.00
13068;BME280;6600;51.362;6.686;2022-10-31T12:58:24;101228.13;;;19.28;99.49
13068;BME280;6600;51.362;6.686;2022-10-31T13:01:06;101223.81;;;19.32;99.29
13068;BME280;6600;51.362;6.686;2022-10-31T13:03:46;101218.16;;;19.34;99.92
13068;BME280;6600;51.362;6.686;2022-10-31T13:06:18;101212.94;;;19.32;98.41
13068;BME280;6600;51.362;6.686;2022-10-31T13:11:28;101190.66;;;19.30;98.92
13068;BME280;6600;51.362;6.686;2022-10-31T13:16:37;101179.53;;;19.32;95.81
13068;BME280;6600;51.362;6.686;2022-10-31T13:21:39;101151.00;;;19.29;94.79
13068;BME280;6600;51.362;6.686;2022-10-31T13:24:13;101142.84;;;19.29;95.27
13068;BME280;6600;51.362;6.686;2022-10-31T13:26:50;101130.84;;;19.25;95.70
13068;BME280;6600;51.362;6.686;2022-10-31T13:29:23;101132.97;;;19.18;95.12
13068;BME280;6600;51.362;6.686;2022-10-31T13:31:49;101140.59;;;19.21;94.68
13068;BME280;6600;51.362;6.686;2022-10-31T13:34:23;101131.34;;;19.17;94.13
13068;BME280;6600;51.362;6.686;2022-10-31T13:37:00;101135.41;;;19.14;95.36
13068;BME280;6600;51.362;6.686;2022-10-31T13:42:04;101149.50;;;19.11;95.45
13068;BME280;6600;51.362;6.686;2022-10-31T13:44:36;101157.41;;;19.13;96.50
13068;BME280;6600;51.362;6.686;2022-10-31T13:47:03;101152.00;;;19.18;96.22
13068;BME280;6600;51.362;6.686;2022-10-31T13:52:14;101125.88;;;19.12;98.03
13068;BME280;6600;51.362;6.686;2022-10-31T13:54:48;101125.31;;;19.10;98.71
13068;BME280;6600;51.362;6.686;2022-10-31T13:57:38;101108.47;;;19.08;99.21
13068;BME280;6600;51.362;6.686;2022-10-31T14:02:56;101089.44;;;19.03;98.02
13068;BME280;6600;51.362;6.686;2022-10-31T14:05:31;101092.16;;;19.08;97.00
13068;BME280;6600;51.362;6.686;2022-10-31T14:08:00;101088.38;;;19.09;96.69
13068;BME280;6600;51.362;6.686;2022-10-31T14:10:31;101084.84;;;19.08;98.02
13068;BME280;6600;51.362;6.686;2022-10-31T14:13:20;101090.53;;;19.07;96.33
13068;BME280;6600;51.362;6.686;2022-10-31T14:16:00;101083.19;;;19.07;96.04
13068;BME280;6600;51.362;6.686;2022-10-31T14:18:32;101085.09;;;19.07;95.70
13068;BME280;6600;51.362;6.686;2022-10-31T14:20:58;101085.09;;;19.07;95.27
13068;BME280;6600;51.362;6.686;2022-10-31T14:26:18;101065.00;;;19.08;94.25
13068;BME280;6600;51.362;6.686;2022-10-31T14:28:45;101059.03;;;19.11;93.53
13068;BME280;6600;51.362;6.686;2022-10-31T14:31:31;101056.63;;;19.09;93.76